Time;durP1;ratioP1;P1;durP2;ratioP2;P2;SDS_P1;SDS_P2;PMS_P1;PMS_P2;Temp;Humidity;BMP_temperature;BMP_pressure;BME280_temperature;BME280_humidity;BME280_pressure;Samples;Min_cycle;Max_cycle;Signal;HPM_P1;HPM_P2
2024/04/16 00:00:25;;;;;;;26.75;24.20;;;19.30;99.90;;;;;;5351546;26;19997;-90
2024/04/16 00:02:51;;;;;;;28.23;24.80;;;19.20;99.90;;;;;;5339290;26;20008;-88
2024/04/16 00:05:18;;;;;;;27.70;24.90;;;19.10;99.90;;;;;;5357042;26;20015;-90
2024/04/16 00:07:44;;;;;;;27.15;24.55;;;19.10;99.90;;;;;;5347115;26;20001;-88
2024/04/16 00:10:11;;;;;;;27.90;25.15;;;19.10;99.90;;;;;;5320947;26;20001;-89
2024/04/16 00:12:38;;;;;;;28.63;24.67;;;19.00;99.90;;;;;;5347743;26;20005;-89
2024/04/16 00:15:25;;;;;;;28.38;25.02;;;18.90;99.90;;;;;;5378652;26;20025;-87
2024/04/16 00:17:52;;;;;;;27.10;24.25;;;18.90;99.90;;;;;;5355891;26;20069;-88
2024/04/16 00:20:18;;;;;;;29.15;24.75;;;18.90;99.90;;;;;;5354489;26;20000;-87
2024/04/16 00:22:44;;;;;;;27.38;24.40;;;18.90;99.90;;;;;;5355648;26;20000;-89
2024/04/16 00:25:14;;;;;;;27.35;24.55;;;18.90;99.90;;;;;;5355821;26;20007;-89
2024/04/16 00:27:41;;;;;;;27.10;23.95;;;18.90;99.90;;;;;;5355691;26;20004;-89
2024/04/16 00:30:08;;;;;;;27.70;24.30;;;18.80;99.90;;;;;;5354322;26;20012;-89
2024/04/16 00:32:35;;;;;;;32.75;24.70;;;18.80;99.90;;;;;;5355078;26;20341;-89
2024/04/16 00:35:01;;;;;;;26.17;23.70;;;18.80;99.90;;;;;;5378263;26;20005;-91
2024/04/16 00:37:27;;;;;;;27.42;23.88;;;18.80;99.90;;;;;;5322620;26;20009;-89
2024/04/16 00:39:54;;;;;;;28.10;25.20;;;18.80;99.90;;;;;;5331707;26;20001;-89
2024/04/16 00:42:20;;;;;;;31.58;28.17;;;18.70;99.90;;;;;;5324626;26;20102;-89
2024/04/16 00:44:47;;;;;;;27.10;24.30;;;18.70;99.90;;;;;;5347527;26;19993;-88
2024/04/16 00:47:17;;;;;;;25.35;22.98;;;18.70;99.90;;;;;;5343822;26;20061;-88
2024/04/16 00:49:44;;;;;;;27.30;23.90;;;18.60;99.90;;;;;;5352840;26;20000;-89
2024/04/16 00:52:11;;;;;;;27.35;23.92;;;18.60;99.90;;;;;;5321056;26;20000;-89
2024/04/16 00:54:38;;;;;;;30.90;24.48;;;18.50;99.90;;;;;;5320395;26;19997;-89
2024/04/16 00:57:05;;;;;;;26.48;23.67;;;18.50;99.90;;;;;;5320444;26;19993;-89
2024/04/16 00:59:37;;;;;;;26.65;23.83;;;18.50;99.90;;;;;;5333296;26;20041;-90
2024/04/16 01:02:04;;;;;;;27.45;22.98;;;18.60;99.90;;;;;;5329413;26;20011;-89
2024/04/16 01:04:31;;;;;;;29.08;23.08;;;18.60;99.90;;;;;;5346036;26;20005;-88
2024/04/16 01:06:57;;;;;;;25.17;22.67;;;18.70;99.90;;;;;;5320164;26;20015;-88
2024/04/16 01:09:30;;;;;;;24.38;22.00;;;18.70;99.90;;;;;;5372278;26;20070;-90
2024/04/16 01:12:00;;;;;;;26.38;21.92;;;18.70;99.90;;;;;;5348605;26;20070;-88
2024/04/16 01:14:27;;;;;;;31.00;21.52;;;18.70;99.90;;;;;;5348901;26;20005;-88
2024/04/16 01:16:54;;;;;;;27.75;21.45;;;18.70;99.90;;;;;;5354501;26;20008;-89
2024/04/16 01:19:21;;;;;;;25.15;20.98;;;18.60;99.90;;;;;;5347547;26;19997;-89
2024/04/16 01:21:47;;;;;;;22.95;20.13;;;18.60;99.90;;;;;;5339672;26;20029;-89
2024/04/16 01:24:15;;;;;;;25.30;21.15;;;18.60;99.90;;;;;;5340176;26;20069;-88
2024/04/16 01:26:42;;;;;;;25.42;20.83;;;18.60;99.90;;;;;;5369509;26;20011;-89
2024/04/16 01:29:08;;;;;;;28.02;20.73;;;18.60;99.90;;;;;;5363019;26;20004;-89
2024/04/16 01:31:38;;;;;;;27.63;21.08;;;18.50;99.90;;;;;;5354720;26;20449;-88
2024/04/16 01:34:04;;;;;;;27.50;20.50;;;18.50;99.90;;;;;;5330419;26;20033;-89
2024/04/16 01:36:31;;;;;;;27.05;21.13;;;18.50;99.90;;;;;;5319723;26;20007;-89
2024/04/16 01:38:57;;;;;;;22.42;19.75;;;18.40;99.90;;;;;;5335504;26;20009;-88
2024/04/16 01:41:23;;;;;;;27.52;20.50;;;18.40;99.90;;;;;;5348376;26;20001;-86
2024/04/16 01:43:49;;;;;;;28.95;20.50;;;18.50;99.90;;;;;;5340369;26;20008;-88
2024/04/16 01:46:16;;;;;;;30.33;20.98;;;18.40;99.90;;;;;;5320353;26;20001;-88
2024/04/16 01:48:42;;;;;;;24.73;20.13;;;18.40;99.90;;;;;;5348404;26;20365;-90
2024/04/16 01:51:09;;;;;;;29.77;21.27;;;18.40;99.90;;;;;;5320563;26;20367;-88
2024/04/16 01:53:35;;;;;;;24.23;20.25;;;18.30;99.90;;;;;;5354220;26;20075;-88
2024/04/16 01:56:05;;;;;;;24.80;19.95;;;18.30;99.90;;;;;;5357635;26;20005;-87
2024/04/16 01:58:41;;;;;;;26.20;21.05;;;18.30;99.90;;;;;;5359019;26;19997;-87
2024/04/16 02:01:07;;;;;;;21.55;19.27;;;18.30;99.90;;;;;;5348887;26;20446;-88
2024/04/16 02:03:33;;;;;;;27.52;20.05;;;18.40;99.90;;;;;;5349188;26;20001;-89
2024/04/16 02:06:05;;;;;;;25.30;20.48;;;18.40;99.90;;;;;;5319678;26;20015;-88
2024/04/16 02:08:32;;;;;;;31.90;20.42;;;18.50;99.90;;;;;;5348470;26;20492;-89
2024/04/16 02:10:59;;;;;;;23.85;19.55;;;18.50;99.90;;;;;;5319676;26;20004;-87
2024/04/16 02:13:26;;;;;;;26.80;19.13;;;18.50;99.90;;;;;;5347243;26;20024;-88
2024/04/16 02:15:53;;;;;;;20.23;18.08;;;18.50;99.90;;;;;;5319448;26;20016;-89
2024/04/16 02:18:19;;;;;;;22.67;18.40;;;18.40;99.90;;;;;;5323695;26;20001;-90
2024/04/16 02:20:46;;;;;;;22.00;18.67;;;18.40;99.90;;;;;;5323272;26;20012;-87
2024/04/16 02:23:12;;;;;;;23.35;18.10;;;18.40;99.90;;;;;;5347799;26;20070;-87
2024/04/16 02:25:46;;;;;;;22.27;18.20;;;18.40;99.90;;;;;;5348346;26;20012;-88
2024/04/16 02:28:13;;;;;;;21.77;18.45;;;18.30;99.90;;;;;;5348101;26;20439;-89
2024/04/16 02:30:40;;;;;;;23.45;18.15;;;18.30;99.90;;;;;;5341911;26;20369;-88
2024/04/16 02:33:10;;;;;;;22.20;18.25;;;18.30;99.90;;;;;;5353951;26;20001;-87
2024/04/16 02:35:36;;;;;;;23.15;18.70;;;18.30;99.90;;;;;;5366960;26;20000;-88
2024/04/16 02:38:03;;;;;;;21.90;17.52;;;18.20;99.90;;;;;;5325858;26;20043;-88
2024/04/16 02:40:29;;;;;;;18.80;16.73;;;18.30;99.90;;;;;;5348192;26;20012;-87
2024/04/16 02:42:56;;;;;;;26.25;17.73;;;18.30;99.90;;;;;;5323188;26;20001;-87
2024/04/16 02:45:23;;;;;;;25.50;17.35;;;18.20;99.90;;;;;;5347516;26;20029;-87
2024/04/16 02:47:49;;;;;;;22.55;17.85;;;18.20;99.90;;;;;;5318895;26;20074;-89
2024/04/16 02:50:16;;;;;;;19.52;17.42;;;18.30;99.90;;;;;;5333032;26;20014;-87
2024/04/16 02:52:42;;;;;;;22.48;17.92;;;18.30;99.90;;;;;;5352921;26;20000;-88
2024/04/16 02:55:09;;;;;;;22.50;16.58;;;18.30;99.90;;;;;;5352187;26;20008;-88
2024/04/16 02:57:35;;;;;;;24.42;17.90;;;18.20;99.90;;;;;;5375402;26;20008;-88
2024/04/16 03:00:03;;;;;;;21.83;16.70;;;18.20;99.90;;;;;;5348573;26;20470;-89
2024/04/16 03:02:29;;;;;;;21.35;17.25;;;18.20;99.90;;;;;;5336336;26;20447;-89
2024/04/16 03:04:56;;;;;;;27.17;16.75;;;18.20;99.90;;;;;;5364488;26;20001;-87
2024/04/16 03:07:22;;;;;;;24.17;17.15;;;18.20;99.90;;;;;;5368336;26;20081;-87
2024/04/16 03:09:48;;;;;;;25.17;16.88;;;18.20;99.90;;;;;;5351288;26;20015;-87
2024/04/16 03:12:14;;;;;;;22.38;16.88;;;18.20;99.90;;;;;;5352866;26;19996;-88
2024/04/16 03:14:41;;;;;;;27.05;17.13;;;18.20;99.90;;;;;;5371557;26;20023;-88
2024/04/16 03:17:07;;;;;;;26.83;17.52;;;18.20;99.90;;;;;;5342272;26;20005;-87
2024/04/16 03:19:34;;;;;;;26.15;16.40;;;18.20;99.90;;;;;;5407194;26;20330;-87
2024/04/16 03:22:00;;;;;;;29.42;17.75;;;18.20;99.90;;;;;;5325556;26;20011;-84
2024/04/16 03:24:26;;;;;;;27.55;17.75;;;18.20;99.90;;;;;;5323973;26;20074;-85
2024/04/16 03:26:55;;;;;;;25.67;18.17;;;18.20;99.90;;;;;;5317623;26;20025;-86
2024/04/16 03:29:25;;;;;;;23.05;17.50;;;18.10;99.90;;;;;;5346294;26;20054;-85
2024/04/16 03:31:51;;;;;;;28.45;17.55;;;18.10;99.90;;;;;;5343515;26;20001;-86
2024/04/16 03:34:17;;;;;;;25.75;17.75;;;18.10;99.90;;;;;;5339629;26;20005;-85
2024/04/16 03:36:45;;;;;;;27.45;18.33;;;18.10;99.90;;;;;;5346535;26;20001;-83
2024/04/16 03:39:11;;;;;;;25.88;18.23;;;18.10;99.90;;;;;;5355541;26;20008;-85
2024/04/16 03:41:37;;;;;;;27.02;17.92;;;18.10;99.90;;;;;;5345248;26;20005;-85
2024/04/16 03:44:04;;;;;;;30.08;18.88;;;18.10;99.90;;;;;;5376335;26;20489;-85
2024/04/16 03:46:30;;;;;;;26.38;18.70;;;18.10;99.90;;;;;;5416032;26;20449;-86
2024/04/16 03:48:56;;;;;;;23.90;18.08;;;18.10;99.90;;;;;;5388526;26;20472;-85
2024/04/16 03:51:22;;;;;;;28.02;19.33;;;18.10;99.90;;;;;;5376828;26;20012;-83
2024/04/16 03:53:49;;;;;;;23.33;18.23;;;18.10;99.90;;;;;;5398615;26;20045;-82
2024/04/16 03:56:15;;;;;;;26.20;18.30;;;18.00;99.90;;;;;;5389534;26;20014;-84
2024/04/16 03:59:04;;;;;;;33.85;19.30;;;18.00;99.90;;;;;;5358730;26;20000;-84
2024/04/16 04:01:31;;;;;;;28.70;18.42;;;18.00;99.90;;;;;;5342196;26;20001;-84
2024/04/16 04:03:57;;;;;;;27.65;18.00;;;18.00;99.90;;;;;;5353487;26;20004;-82
2024/04/16 04:06:24;;;;;;;22.85;18.63;;;18.00;99.90;;;;;;5353748;26;19996;-83
2024/04/16 04:08:50;;;;;;;26.17;19.48;;;18.00;99.90;;;;;;5323539;26;20042;-80
2024/04/16 04:11:17;;;;;;;22.77;18.98;;;17.90;99.90;;;;;;5365176;26;19992;-81
2024/04/16 04:13:43;;;;;;;29.02;19.15;;;17.90;99.90;;;;;;5370040;26;20004;-81
2024/04/16 04:16:12;;;;;;;30.98;19.55;;;18.00;99.90;;;;;;5375142;26;20092;-81
2024/04/16 04:18:38;;;;;;;26.02;19.58;;;18.00;99.90;;;;;;5328559;26;20016;-84
2024/04/16 04:21:05;;;;;;;30.60;20.40;;;18.00;99.90;;;;;;5320406;26;20465;-87
2024/04/16 04:23:31;;;;;;;27.00;19.45;;;18.00;99.90;;;;;;5335740;26;20016;-85
2024/04/16 04:26:05;;;;;;;27.13;20.15;;;18.00;99.90;;;;;;5340627;26;19997;-88
2024/04/16 04:28:31;;;;;;;27.95;20.73;;;18.10;99.90;;;;;;5328565;26;19996;-89
2024/04/16 04:31:20;;;;;;;23.48;20.08;;;18.10;99.90;;;;;;5331742;26;20056;-88
2024/04/16 04:33:47;;;;;;;23.10;20.52;;;18.10;99.90;;;;;;5348127;26;20007;-87
2024/04/16 04:36:14;;;;;;;24.35;19.65;;;18.10;99.90;;;;;;5349173;26;20069;-88
2024/04/16 04:38:40;;;;;;;25.17;20.30;;;18.10;99.90;;;;;;5380004;26;20012;-88
2024/04/16 04:41:11;;;;;;;27.13;20.23;;;18.10;99.90;;;;;;5355150;26;20011;-88
2024/04/16 04:43:38;;;;;;;23.10;20.50;;;18.20;99.90;;;;;;5338863;26;20008;-87
2024/04/16 04:46:05;;;;;;;24.48;20.40;;;18.20;99.90;;;;;;5348696;26;20012;-88
2024/04/16 04:48:31;;;;;;;24.52;21.52;;;18.20;99.90;;;;;;5326969;26;19997;-88
2024/04/16 04:50:58;;;;;;;25.83;20.98;;;18.20;99.90;;;;;;5321795;26;20000;-87
2024/04/16 04:53:25;;;;;;;28.80;20.95;;;18.20;99.90;;;;;;5347218;26;20007;-88
2024/04/16 04:55:51;;;;;;;26.30;20.52;;;18.20;99.90;;;;;;5334405;26;20004;-87
2024/04/16 04:58:17;;;;;;;23.90;20.63;;;18.20;99.90;;;;;;5347720;26;20064;-88
2024/04/16 05:00:44;;;;;;;23.63;21.02;;;18.20;99.90;;;;;;5353178;26;20522;-88
2024/04/16 05:03:10;;;;;;;23.73;21.33;;;18.30;99.90;;;;;;5347211;26;20001;-88
2024/04/16 05:05:37;;;;;;;24.55;21.83;;;18.30;99.90;;;;;;5319844;26;20004;-87
2024/04/16 05:08:04;;;;;;;23.45;21.02;;;18.30;99.90;;;;;;5321629;26;20032;-88
2024/04/16 05:10:31;;;;;;;25.90;21.98;;;18.30;99.90;;;;;;5319578;26;20458;-89
2024/04/16 05:12:57;;;;;;;25.83;21.88;;;18.40;99.90;;;;;;5329638;26;20008;-88
2024/04/16 05:15:24;;;;;;;24.20;21.67;;;18.40;99.90;;;;;;5350044;26;20001;-87
2024/04/16 05:17:58;;;;;;;24.50;21.90;;;18.40;99.90;;;;;;5348684;26;20088;-86
2024/04/16 05:20:27;;;;;;;28.35;22.25;;;18.40;99.90;;;;;;5347982;26;20032;-86
2024/04/16 05:22:53;;;;;;;25.08;22.15;;;18.50;99.90;;;;;;5318974;26;20016;-87
2024/04/16 05:25:19;;;;;;;24.98;22.25;;;18.60;99.90;;;;;;5319078;26;20011;-86
2024/04/16 05:27:46;;;;;;;28.98;21.88;;;18.70;99.90;;;;;;5345679;26;20008;-85
2024/04/16 05:30:13;;;;;;;31.55;21.60;;;18.70;99.90;;;;;;5353056;26;20077;-86
2024/04/16 05:32:39;;;;;;;28.52;22.25;;;18.80;99.90;;;;;;5347246;26;20016;-86
2024/04/16 05:35:06;;;;;;;25.00;22.48;;;18.90;99.90;;;;;;5394102;26;20077;-86
2024/04/16 05:37:33;;;;;;;25.83;22.20;;;18.90;99.90;;;;;;5353851;26;20046;-87
2024/04/16 05:39:59;;;;;;;24.48;22.23;;;18.90;99.90;;;;;;5347259;26;20016;-87
2024/04/16 05:42:26;;;;;;;25.90;22.80;;;19.00;99.90;;;;;;5347308;26;20004;-86
2024/04/16 05:44:53;;;;;;;25.52;22.88;;;19.10;99.90;;;;;;5386685;26;20003;-85
2024/04/16 05:47:21;;;;;;;30.98;24.40;;;19.20;99.90;;;;;;5396822;26;20027;-85
2024/04/16 05:49:48;;;;;;;25.08;22.65;;;19.30;99.90;;;;;;5391893;26;20008;-87
2024/04/16 05:52:14;;;;;;;25.67;23.15;;;19.30;99.90;;;;;;5388341;26;20493;-86
2024/04/16 05:54:40;;;;;;;25.70;23.23;;;19.40;99.90;;;;;;5373608;26;20049;-91
2024/04/16 05:57:07;;;;;;;29.67;24.08;;;19.50;99.90;;;;;;5389206;26;20003;-90
2024/04/16 05:59:34;;;;;;;25.38;23.00;;;19.60;99.90;;;;;;5388997;26;20015;-91
2024/04/16 06:02:01;;;;;;;25.73;23.13;;;19.80;99.90;;;;;;5375990;26;19997;-91
2024/04/16 06:04:27;;;;;;;26.50;23.67;;;20.00;99.90;;;;;;5348286;26;20013;-90
2024/04/16 06:06:54;;;;;;;26.70;24.13;;;19.90;99.90;;;;;;5348253;26;20016;-90
2024/04/16 06:09:21;;;;;;;27.63;24.40;;;20.00;99.90;;;;;;5348442;26;20457;-90
2024/04/16 06:11:48;;;;;;;29.98;25.02;;;19.90;99.90;;;;;;5351474;26;20011;-89
2024/04/16 06:14:15;;;;;;;27.63;25.08;;;20.00;99.90;;;;;;5362641;26;20003;-83
2024/04/16 06:16:41;;;;;;;28.63;25.80;;;20.00;99.90;;;;;;5387046;26;20007;-83
2024/04/16 06:19:08;;;;;;;26.08;23.77;;;20.10;99.90;;;;;;5381318;26;20010;-84
2024/04/16 06:21:35;;;;;;;26.73;24.33;;;20.10;99.90;;;;;;5352101;26;20000;-84
2024/04/16 06:24:02;;;;;;;27.73;25.42;;;20.10;99.90;;;;;;5346431;26;20015;-85
2024/04/16 06:26:29;;;;;;;27.42;24.92;;;20.10;99.90;;;;;;5317176;26;20001;-84
2024/04/16 06:28:57;;;;;;;28.63;25.70;;;20.20;99.90;;;;;;5317652;26;20004;-84
2024/04/16 06:31:23;;;;;;;27.88;25.48;;;20.20;99.90;;;;;;5317562;26;20001;-84
2024/04/16 06:33:49;;;;;;;29.50;26.55;;;20.20;99.90;;;;;;5323870;26;20374;-88
2024/04/16 06:36:16;;;;;;;29.17;26.50;;;20.30;99.90;;;;;;5387532;26;20015;-86
2024/04/16 06:38:43;;;;;;;28.73;26.45;;;20.40;99.90;;;;;;5353539;26;20004;-85
2024/04/16 06:41:09;;;;;;;29.05;26.30;;;20.40;99.90;;;;;;5381774;26;20004;-85
2024/04/16 06:43:38;;;;;;;28.30;25.95;;;20.50;99.90;;;;;;5352403;26;20398;-86
2024/04/16 06:46:05;;;;;;;28.50;26.15;;;20.60;99.90;;;;;;5346587;26;20001;-85
2024/04/16 06:48:32;;;;;;;29.52;26.92;;;20.70;99.90;;;;;;5317946;26;20442;-87
2024/04/16 06:51:03;;;;;;;28.50;25.92;;;20.70;99.90;;;;;;5317877;26;20015;-86
2024/04/16 06:53:29;;;;;;;29.52;27.00;;;20.80;99.90;;;;;;5339994;26;20012;-86
2024/04/16 06:56:05;;;;;;;28.80;26.17;;;20.80;99.90;;;;;;5317467;26;20012;-86
2024/04/16 06:58:33;;;;;;;32.63;25.90;;;20.90;99.90;;;;;;5318187;26;19997;-87
2024/04/16 07:01:00;;;;;;;28.15;26.02;;;20.90;99.90;;;;;;5317503;26;20078;-88
2024/04/16 07:03:28;;;;;;;28.75;26.17;;;21.00;99.90;;;;;;5345121;26;20000;-86
2024/04/16 07:05:54;;;;;;;29.23;26.90;;;21.10;99.90;;;;;;5352129;26;20429;-87
2024/04/16 07:08:22;;;;;;;29.67;26.80;;;21.20;99.90;;;;;;5368066;26;20003;-85
2024/04/16 07:10:49;;;;;;;29.45;26.88;;;21.20;99.90;;;;;;5386967;26;20480;-85
2024/04/16 07:13:16;;;;;;;30.92;28.02;;;21.40;99.90;;;;;;5357746;26;20004;-85
2024/04/16 07:15:43;;;;;;;30.48;28.00;;;21.50;99.90;;;;;;5405201;26;20463;-86
2024/04/16 07:18:09;;;;;;;30.45;27.92;;;21.60;99.90;;;;;;5386908;26;20014;-87
2024/04/16 07:20:36;;;;;;;29.67;27.35;;;21.80;99.90;;;;;;5386733;26;20005;-85
2024/04/16 07:23:06;;;;;;;29.27;26.98;;;21.80;99.90;;;;;;5385702;26;20003;-85
2024/04/16 07:25:32;;;;;;;29.80;27.02;;;21.90;99.90;;;;;;5346170;26;20037;-84
2024/04/16 07:28:02;;;;;;;32.40;27.83;;;22.00;99.90;;;;;;5345780;26;20013;-85
2024/04/16 07:30:29;;;;;;;31.67;28.60;;;22.20;99.90;;;;;;5345613;26;20338;-86
2024/04/16 07:32:55;;;;;;;31.45;28.40;;;22.10;99.90;;;;;;5345961;26;20001;-87
2024/04/16 07:35:22;;;;;;;30.10;27.77;;;22.00;99.90;;;;;;5379370;26;20000;-86
2024/04/16 07:37:49;;;;;;;31.67;28.77;;;21.90;99.90;;;;;;5415334;26;19999;-86
2024/04/16 07:40:17;;;;;;;31.52;28.65;;;21.90;99.90;;;;;;5387579;26;20031;-85
2024/04/16 07:42:44;;;;;;;30.75;28.23;;;22.00;99.90;;;;;;5390066;26;20016;-87
2024/04/16 07:45:11;;;;;;;31.55;28.67;;;22.00;99.90;;;;;;5393379;26;20003;-88
2024/04/16 07:47:38;;;;;;;31.25;28.45;;;21.90;99.90;;;;;;5388556;26;20076;-87
2024/04/16 07:50:07;;;;;;;31.55;28.80;;;21.80;99.90;;;;;;5387133;26;20016;-89
2024/04/16 07:52:35;;;;;;;31.23;28.75;;;21.70;99.90;;;;;;5389990;26;20004;-89
2024/04/16 07:55:02;;;;;;;33.15;29.17;;;21.60;99.90;;;;;;5355045;26;20000;-90
2024/04/16 07:57:29;;;;;;;31.67;28.77;;;21.60;99.90;;;;;;5346382;26;20001;-89
2024/04/16 07:59:56;;;;;;;32.47;29.85;;;21.60;99.90;;;;;;5346367;26;20012;-89
2024/04/16 08:02:23;;;;;;;31.42;28.58;;;21.60;99.90;;;;;;5345858;26;20439;-86
2024/04/16 08:04:51;;;;;;;30.75;28.08;;;21.80;99.90;;;;;;5383709;26;20014;-86
2024/04/16 08:07:18;;;;;;;31.33;28.40;;;21.80;99.90;;;;;;5379680;26;20008;-86
2024/04/16 08:09:47;;;;;;;30.55;28.05;;;21.70;99.90;;;;;;5351378;26;20004;-87
2024/04/16 08:12:15;;;;;;;32.75;29.50;;;21.70;99.90;;;;;;5380694;26;20000;-87
2024/04/16 08:14:42;;;;;;;31.17;28.35;;;21.50;99.90;;;;;;5364522;26;20008;-89
2024/04/16 08:17:10;;;;;;;30.38;27.35;;;21.40;99.90;;;;;;5387246;26;19995;-89
2024/04/16 08:19:38;;;;;;;30.23;27.13;;;21.60;99.90;;;;;;5386511;26;20414;-85
2024/04/16 08:22:06;;;;;;;31.50;27.58;;;21.50;99.90;;;;;;5385970;26;20011;-86
2024/04/16 08:24:32;;;;;;;29.92;26.95;;;21.60;99.90;;;;;;5371760;26;20331;-85
2024/04/16 08:26:59;;;;;;;29.83;26.80;;;21.60;99.90;;;;;;5380025;26;20421;-85
2024/04/16 08:29:26;;;;;;;30.30;27.42;;;21.70;99.90;;;;;;5365377;26;20353;-86
2024/04/16 08:31:53;;;;;;;30.77;27.67;;;21.60;99.90;;;;;;5344963;26;20006;-86
2024/04/16 08:34:21;;;;;;;30.92;27.40;;;21.80;99.90;;;;;;5375550;26;20527;-85
2024/04/16 08:36:48;;;;;;;30.88;27.45;;;21.80;99.90;;;;;;5383089;26;20076;-85
2024/04/16 08:39:15;;;;;;;33.30;28.42;;;21.90;99.90;;;;;;5347794;26;20568;-86
2024/04/16 08:41:43;;;;;;;30.35;27.05;;;21.90;99.90;;;;;;5348463;26;20074;-86
2024/04/16 08:44:12;;;;;;;31.95;27.08;;;21.80;99.90;;;;;;5348246;26;20015;-89
2024/04/16 08:46:40;;;;;;;32.92;27.50;;;21.90;99.90;;;;;;5320248;26;20012;-87
2024/04/16 08:49:09;;;;;;;33.53;28.33;;;22.00;99.90;;;;;;5383367;26;20000;-87
2024/04/16 08:51:36;;;;;;;38.97;27.58;;;22.00;99.90;;;;;;5354922;26;20016;-86
2024/04/16 08:54:06;;;;;;;32.13;27.35;;;22.10;99.90;;;;;;5354816;26;20400;-88
2024/04/16 08:56:35;;;;;;;39.55;27.65;;;22.10;99.90;;;;;;5356084;26;20019;-86
2024/04/16 08:59:02;;;;;;;37.08;27.27;;;21.90;99.90;;;;;;5385498;26;20000;-87
2024/04/16 09:01:33;;;;;;;39.67;26.67;;;21.80;99.90;;;;;;5383603;26;20374;-86
2024/04/16 09:04:01;;;;;;;36.80;27.35;;;21.70;99.90;;;;;;5384802;26;20000;-88
2024/04/16 09:06:29;;;;;;;40.90;28.05;;;21.70;99.90;;;;;;5384675;26;19996;-88
2024/04/16 09:09:01;;;;;;;50.88;28.45;;;21.70;99.90;;;;;;5382630;26;20011;-88
2024/04/16 09:11:28;;;;;;;40.88;28.33;;;21.70;99.90;;;;;;5349283;26;20013;-88
2024/04/16 09:13:58;;;;;;;48.95;29.90;;;21.80;99.90;;;;;;5324209;26;20342;-87
2024/04/16 09:16:25;;;;;;;44.58;28.27;;;21.90;99.90;;;;;;5390506;26;20050;-88
2024/04/16 09:18:55;;;;;;;35.75;28.80;;;21.90;99.90;;;;;;5388253;26;20438;-87
2024/04/16 09:21:21;;;;;;;38.08;28.52;;;22.00;99.90;;;;;;5388770;26;20007;-87
2024/04/16 09:23:54;;;;;;;38.40;29.45;;;22.00;99.90;;;;;;5388543;26;19999;-89
2024/04/16 09:26:21;;;;;;;57.25;28.90;;;22.00;99.90;;;;;;5361152;26;20000;-88
2024/04/16 09:28:48;;;;;;;50.47;29.30;;;22.00;99.90;;;;;;5347020;26;20000;-88
2024/04/16 09:31:16;;;;;;;42.15;29.13;;;22.10;99.90;;;;;;5318082;26;20123;-87
2024/04/16 09:33:43;;;;;;;39.05;28.13;;;22.10;99.90;;;;;;5347534;26;20001;-86
2024/04/16 09:36:16;;;;;;;39.63;29.73;;;22.20;99.90;;;;;;5411998;26;20010;-86
2024/04/16 09:38:44;;;;;;;42.20;28.90;;;22.10;99.90;;;;;;5394193;26;20012;-88
2024/04/16 09:41:12;;;;;;;42.75;28.10;;;22.10;99.90;;;;;;5382812;26;20012;-87
2024/04/16 09:43:43;;;;;;;41.03;28.67;;;22.10;99.90;;;;;;5365676;26;19993;-87
2024/04/16 09:46:12;;;;;;;45.10;27.65;;;22.20;99.90;;;;;;5387073;26;20010;-87
2024/04/16 09:48:39;;;;;;;47.38;28.60;;;22.20;99.90;;;;;;5387698;26;20004;-87
2024/04/16 09:51:07;;;;;;;46.70;29.30;;;22.20;99.90;;;;;;5354498;26;20001;-87
2024/04/16 09:53:39;;;;;;;48.20;29.48;;;22.20;99.90;;;;;;5347826;26;20460;-87
2024/04/16 09:56:08;;;;;;;52.30;27.65;;;22.10;99.90;;;;;;5348054;26;20450;-87
2024/04/16 09:58:37;;;;;;;45.15;28.17;;;22.10;99.90;;;;;;5319085;26;19997;-88
2024/04/16 10:01:04;;;;;;;45.83;28.42;;;22.00;99.90;;;;;;5326495;26;20001;-88
2024/04/16 10:03:31;;;;;;;41.17;27.45;;;22.00;99.90;;;;;;5377252;26;20013;-87
2024/04/16 10:05:58;;;;;;;44.08;27.90;;;22.00;99.90;;;;;;5376841;26;20070;-87
2024/04/16 10:08:26;;;;;;;41.75;27.35;;;22.00;99.90;;;;;;5377091;26;20019;-87
2024/04/16 10:10:58;;;;;;;47.33;28.67;;;21.90;99.90;;;;;;5357082;26;20012;-88
2024/04/16 10:13:27;;;;;;;39.80;27.40;;;22.00;99.90;;;;;;5371036;26;20000;-86
2024/04/16 10:15:56;;;;;;;45.97;26.98;;;22.00;99.90;;;;;;5382911;26;20008;-86
2024/04/16 10:18:24;;;;;;;38.05;27.40;;;21.90;99.90;;;;;;5384378;26;20036;-89
2024/04/16 10:20:58;;;;;;;35.15;26.50;;;21.80;99.90;;;;;;5383484;26;20008;-85
2024/04/16 10:23:28;;;;;;;39.17;26.47;;;21.80;99.90;;;;;;5353276;26;20027;-88
2024/04/16 10:25:57;;;;;;;47.30;26.55;;;21.70;99.90;;;;;;5382627;26;20037;-88
2024/04/16 10:28:34;;;;;;;34.33;26.88;;;21.70;99.90;;;;;;5353194;26;20000;-88
2024/04/16 10:31:08;;;;;;;40.97;25.25;;;21.50;99.90;;;;;;5366463;26;19997;-88
2024/04/16 10:33:36;;;;;;;40.75;26.20;;;21.50;99.90;;;;;;5377434;26;20005;-88
2024/04/16 10:36:15;;;;;;;36.40;24.88;;;21.40;99.90;;;;;;5353287;26;20077;-86
2024/04/16 10:38:42;;;;;;;38.35;26.05;;;21.30;99.90;;;;;;5382524;26;20000;-88
2024/04/16 10:41:09;;;;;;;37.70;23.90;;;21.20;99.90;;;;;;5382189;26;20000;-87
2024/04/16 10:43:38;;;;;;;37.40;24.90;;;21.20;99.90;;;;;;5347204;26;20015;-87
2024/04/16 10:46:06;;;;;;;48.80;24.20;;;21.20;99.90;;;;;;5406677;26;20018;-87
2024/04/16 10:48:33;;;;;;;43.20;25.02;;;21.20;99.90;;;;;;5417587;26;20007;-87
2024/04/16 10:51:00;;;;;;;40.45;23.88;;;21.00;99.90;;;;;;5417594;26;20330;-86
2024/04/16 10:53:26;;;;;;;35.38;22.45;;;21.00;99.90;;;;;;5351256;26;20001;-87
2024/04/16 10:55:54;;;;;;;28.85;21.95;;;21.00;99.90;;;;;;5317993;26;20037;-87
2024/04/16 10:58:21;;;;;;;35.28;21.55;;;20.90;99.90;;;;;;5345779;26;20005;-89
2024/04/16 11:00:53;;;;;;;30.15;21.35;;;20.90;99.90;;;;;;5346672;26;20013;-87
2024/04/16 11:03:20;;;;;;;43.35;21.73;;;20.80;99.90;;;;;;5374395;26;20079;-87
2024/04/16 11:05:47;;;;;;;33.90;21.55;;;20.60;99.90;;;;;;5383186;26;20000;-86
2024/04/16 11:08:14;;;;;;;35.30;20.98;;;20.50;99.90;;;;;;5352267;26;20015;-87
2024/04/16 11:10:43;;;;;;;34.58;20.80;;;20.40;99.90;;;;;;5352380;26;20005;-86
2024/04/16 11:13:10;;;;;;;36.15;20.13;;;20.20;99.90;;;;;;5357099;26;20096;-88
2024/04/16 11:15:36;;;;;;;41.28;21.48;;;20.20;99.90;;;;;;5370707;26;20030;-90
2024/04/16 11:18:03;;;;;;;34.45;20.20;;;20.20;99.90;;;;;;5347809;26;20013;-88
2024/04/16 11:20:30;;;;;;;36.45;20.38;;;20.20;99.90;;;;;;5372354;26;20015;-89
2024/04/16 11:22:58;;;;;;;36.97;20.02;;;20.20;99.90;;;;;;5318270;26;20047;-87
2024/04/16 11:25:34;;;;;;;37.65;19.55;;;20.20;99.90;;;;;;5318208;26;20019;-88
2024/04/16 11:28:04;;;;;;;42.20;19.40;;;20.20;99.90;;;;;;5320771;26;20128;-91
2024/04/16 11:30:30;;;;;;;36.78;19.77;;;20.10;99.90;;;;;;5347680;26;20000;-87
2024/04/16 11:32:58;;;;;;;34.55;18.98;;;20.00;99.90;;;;;;5376329;26;20045;-86
2024/04/16 11:35:25;;;;;;;36.15;18.33;;;19.90;99.90;;;;;;5387240;26;20011;-87
2024/04/16 11:37:51;;;;;;;41.17;17.27;;;19.90;99.90;;;;;;5387471;26;20018;-86
2024/04/16 11:40:18;;;;;;;30.20;17.05;;;20.00;99.90;;;;;;5372363;26;19997;-87
2024/04/16 11:42:45;;;;;;;31.48;16.92;;;20.00;99.90;;;;;;5347340;26;19997;-88
2024/04/16 11:45:12;;;;;;;29.75;17.48;;;19.90;99.90;;;;;;5395983;26;20080;-84
2024/04/16 11:47:38;;;;;;;38.08;16.98;;;19.90;99.90;;;;;;5375841;26;20011;-86
2024/04/16 11:50:05;;;;;;;34.10;15.52;;;20.00;99.90;;;;;;5382526;26;20000;-85
2024/04/16 11:52:31;;;;;;;34.88;17.20;;;19.90;99.90;;;;;;5380562;26;20037;-85
2024/04/16 11:54:58;;;;;;;37.75;16.00;;;19.80;99.90;;;;;;5380633;26;20004;-85
2024/04/16 11:57:24;;;;;;;39.70;16.90;;;19.70;99.90;;;;;;5380890;26;20079;-85
2024/04/16 12:00:19;;;;;;;29.80;15.82;;;19.70;99.90;;;;;;5381288;26;20023;-87
2024/04/16 12:03:36;;;;;;;24.15;16.13;;;19.60;99.90;;;;;;5374452;26;20025;-89
2024/04/16 12:06:40;;;;;;;31.10;17.13;;;19.50;99.90;;;;;;5346688;26;20001;-85
2024/04/16 12:09:40;;;;;;;31.30;16.30;;;19.60;99.90;;;;;;5346459;26;20017;-85
2024/04/16 12:12:15;;;;;;;36.13;16.70;;;19.50;99.90;;;;;;5350947;26;20078;-83
2024/04/16 12:16:07;;;;;;;29.17;16.77;;;19.50;99.90;;;;;;5371349;26;20353;-84
2024/04/16 12:26:33;;;;;;;27.33;16.05;;;19.60;99.90;;;;;;5397430;26;20015;-85
2024/04/16 12:29:03;;;;;;;32.70;17.75;;;19.60;99.90;;;;;;5393561;26;20329;-85
2024/04/16 12:31:30;;;;;;;35.60;18.20;;;19.50;99.90;;;;;;5412480;26;20037;-82
2024/04/16 12:34:00;;;;;;;28.70;17.10;;;19.60;99.90;;;;;;5380619;26;20018;-83
2024/04/16 12:36:27;;;;;;;37.22;16.65;;;19.60;99.90;;;;;;5418138;26;20000;-83
2024/04/16 12:38:54;;;;;;;28.58;17.25;;;19.60;99.90;;;;;;5417948;26;20314;-83
2024/04/16 12:42:02;;;;;;;29.15;16.90;;;19.60;99.90;;;;;;5388507;26;20072;-86